sensor_id;sensor_type;location;lat;lon;timestamp;pressure;altitude;pressure_sealevel;temperature;humidity
39363;BME280;25088;43.238;23.110;2023-02-04T00:00:49;96098.53;;;7.46;48.93
39363;BME280;25088;43.238;23.110;2023-02-04T00:03:15;96102.28;;;7.45;48.46
39363;BME280;25088;43.238;23.110;2023-02-04T00:05:41;96076.94;;;7.40;48.28
39363;BME280;25088;43.238;23.110;2023-02-04T00:08:08;96078.56;;;7.41;47.15
39363;BME280;25088;43.238;23.110;2023-02-04T00:10:33;96096.78;;;7.40;48.04
39363;BME280;25088;43.238;23.110;2023-02-04T00:12:59;96090.22;;;7.36;48.01
39363;BME280;25088;43.238;23.110;2023-02-04T00:15:25;96081.00;;;7.37;47.92
39363;BME280;25088;43.238;23.110;2023-02-04T00:17:50;96086.25;;;7.44;48.21
39363;BME280;25088;43.238;23.110;2023-02-04T00:20:16;96083.34;;;7.50;48.61
39363;BME280;25088;43.238;23.110;2023-02-04T00:22:44;96082.53;;;7.50;47.86
39363;BME280;25088;43.238;23.110;2023-02-04T00:25:10;96082.22;;;7.63;47.29
39363;BME280;25088;43.238;23.110;2023-02-04T00:27:35;96083.09;;;7.69;46.78
39363;BME280;25088;43.238;23.110;2023-02-04T00:30:01;96077.75;;;7.74;46.09
39363;BME280;25088;43.238;23.110;2023-02-04T00:32:27;96084.91;;;7.80;46.77
39363;BME280;25088;43.238;23.110;2023-02-04T00:34:52;96061.47;;;7.40;46.32
39363;BME280;25088;43.238;23.110;2023-02-04T00:37:18;96075.56;;;7.37;47.12
39363;BME280;25088;43.238;23.110;2023-02-04T00:39:43;96057.78;;;7.13;47.62
39363;BME280;25088;43.238;23.110;2023-02-04T00:42:09;96049.78;;;7.06;47.95
39363;BME280;25088;43.238;23.110;2023-02-04T00:44:35;96074.00;;;6.96;48.38
39363;BME280;25088;43.238;23.110;2023-02-04T00:47:01;96058.88;;;7.00;48.19
39363;BME280;25088;43.238;23.110;2023-02-04T00:49:26;96072.38;;;6.95;48.51
39363;BME280;25088;43.238;23.110;2023-02-04T00:51:52;96070.72;;;6.94;48.57
39363;BME280;25088;43.238;23.110;2023-02-04T00:54:17;96057.41;;;6.92;48.48
39363;BME280;25088;43.238;23.110;2023-02-04T00:56:43;96051.72;;;6.94;48.75
39363;BME280;25088;43.238;23.110;2023-02-04T00:59:09;96053.38;;;6.95;48.83
39363;BME280;25088;43.238;23.110;2023-02-04T01:01:34;96033.13;;;6.86;48.52
39363;BME280;25088;43.238;23.110;2023-02-04T01:04:00;96041.69;;;6.94;48.47
39363;BME280;25088;43.238;23.110;2023-02-04T01:06:25;96039.59;;;6.96;47.98
39363;BME280;25088;43.238;23.110;2023-02-04T01:08:51;96048.84;;;7.00;47.91
39363;BME280;25088;43.238;23.110;2023-02-04T01:11:17;96041.31;;;7.03;47.72
39363;BME280;25088;43.238;23.110;2023-02-04T01:13:43;96052.00;;;7.09;48.06
39363;BME280;25088;43.238;23.110;2023-02-04T01:16:08;96052.97;;;7.03;48.33
39363;BME280;25088;43.238;23.110;2023-02-04T01:18:34;96048.63;;;7.02;48.52
39363;BME280;25088;43.238;23.110;2023-02-04T01:20:59;96045.91;;;7.19;48.26
39363;BME280;25088;43.238;23.110;2023-02-04T01:23:25;96038.69;;;7.24;47.60
39363;BME280;25088;43.238;23.110;2023-02-04T01:25:50;96038.19;;;7.28;47.82
39363;BME280;25088;43.238;23.110;2023-02-04T01:28:16;96028.97;;;7.29;47.89
39363;BME280;25088;43.238;23.110;2023-02-04T01:30:41;96021.91;;;7.28;47.99
39363;BME280;25088;43.238;23.110;2023-02-04T01:33:07;96017.28;;;7.28;47.70
39363;BME280;25088;43.238;23.110;2023-02-04T01:35:32;96026.00;;;7.30;47.90
39363;BME280;25088;43.238;23.110;2023-02-04T01:37:58;95999.19;;;7.17;48.04
39363;BME280;25088;43.238;23.110;2023-02-04T01:40:23;95983.56;;;7.07;48.61
39363;BME280;25088;43.238;23.110;2023-02-04T01:42:49;95971.91;;;7.07;48.33
39363;BME280;25088;43.238;23.110;2023-02-04T01:45:15;95982.09;;;7.16;48.34
39363;BME280;25088;43.238;23.110;2023-02-04T01:47:41;95968.59;;;7.21;48.35
39363;BME280;25088;43.238;23.110;2023-02-04T01:50:10;95957.00;;;7.09;48.23
39363;BME280;25088;43.238;23.110;2023-02-04T01:52:37;95977.41;;;7.12;47.78
39363;BME280;25088;43.238;23.110;2023-02-04T01:55:13;95964.16;;;6.98;47.78
39363;BME280;25088;43.238;23.110;2023-02-04T01:57:38;95957.09;;;6.97;47.58
39363;BME280;25088;43.238;23.110;2023-02-04T02:00:09;95958.66;;;6.93;47.96
39363;BME280;25088;43.238;23.110;2023-02-04T02:02:38;95937.59;;;7.00;47.83
39363;BME280;25088;43.238;23.110;2023-02-04T02:05:06;95926.16;;;6.98;48.07
39363;BME280;25088;43.238;23.110;2023-02-04T02:07:31;95915.56;;;6.97;47.28
39363;BME280;25088;43.238;23.110;2023-02-04T02:09:57;95923.13;;;7.12;46.78
39363;BME280;25088;43.238;23.110;2023-02-04T02:12:23;95954.78;;;7.23;46.57
39363;BME280;25088;43.238;23.110;2023-02-04T02:14:48;95956.16;;;7.25;46.91
39363;BME280;25088;43.238;23.110;2023-02-04T02:17:13;95967.09;;;7.31;46.46
39363;BME280;25088;43.238;23.110;2023-02-04T02:19:40;95975.16;;;7.42;46.55
39363;BME280;25088;43.238;23.110;2023-02-04T02:22:12;95966.81;;;7.49;46.55
39363;BME280;25088;43.238;23.110;2023-02-04T02:24:40;95971.50;;;7.54;45.56
39363;BME280;25088;43.238;23.110;2023-02-04T02:27:07;95951.13;;;7.51;45.69
39363;BME280;25088;43.238;23.110;2023-02-04T02:29:35;95958.47;;;7.56;46.06
39363;BME280;25088;43.238;23.110;2023-02-04T02:32:01;95949.03;;;7.58;46.56
39363;BME280;25088;43.238;23.110;2023-02-04T02:34:28;95957.09;;;7.53;46.42
39363;BME280;25088;43.238;23.110;2023-02-04T02:36:54;95942.44;;;7.54;45.93
39363;BME280;25088;43.238;23.110;2023-02-04T02:39:21;95947.31;;;7.52;46.56
39363;BME280;25088;43.238;23.110;2023-02-04T02:41:46;95926.69;;;7.34;47.11
39363;BME280;25088;43.238;23.110;2023-02-04T02:44:13;95929.00;;;7.25;47.99
39363;BME280;25088;43.238;23.110;2023-02-04T02:46:39;95934.78;;;7.12;48.36
39363;BME280;25088;43.238;23.110;2023-02-04T02:49:05;95942.28;;;7.05;48.44
39363;BME280;25088;43.238;23.110;2023-02-04T02:51:31;95924.19;;;6.94;49.36
39363;BME280;25088;43.238;23.110;2023-02-04T02:53:57;95909.31;;;6.80;49.70
39363;BME280;25088;43.238;23.110;2023-02-04T02:56:22;95940.22;;;6.79;50.04
39363;BME280;25088;43.238;23.110;2023-02-04T02:58:48;95926.75;;;6.84;49.62
39363;BME280;25088;43.238;23.110;2023-02-04T03:01:14;95926.44;;;6.97;49.42
39363;BME280;25088;43.238;23.110;2023-02-04T03:03:44;95920.56;;;7.05;49.08
39363;BME280;25088;43.238;23.110;2023-02-04T03:06:15;95934.34;;;7.20;48.69
39363;BME280;25088;43.238;23.110;2023-02-04T03:08:42;95923.50;;;7.20;48.11
39363;BME280;25088;43.238;23.110;2023-02-04T03:11:08;95921.53;;;7.33;48.67
39363;BME280;25088;43.238;23.110;2023-02-04T03:13:34;95918.22;;;7.31;48.20
39363;BME280;25088;43.238;23.110;2023-02-04T03:16:02;95913.50;;;7.43;48.58
39363;BME280;25088;43.238;23.110;2023-02-04T03:18:28;95912.28;;;7.34;48.46
39363;BME280;25088;43.238;23.110;2023-02-04T03:20:55;95904.00;;;7.23;48.95
39363;BME280;25088;43.238;23.110;2023-02-04T03:23:23;95910.94;;;7.14;48.72
39363;BME280;25088;43.238;23.110;2023-02-04T03:25:49;95902.59;;;7.21;48.82
39363;BME280;25088;43.238;23.110;2023-02-04T03:28:14;95911.06;;;7.24;49.06
39363;BME280;25088;43.238;23.110;2023-02-04T03:30:40;95916.56;;;7.30;48.96
39363;BME280;25088;43.238;23.110;2023-02-04T03:33:05;95906.88;;;7.34;48.31
39363;BME280;25088;43.238;23.110;2023-02-04T03:35:31;95909.31;;;7.35;49.21
39363;BME280;25088;43.238;23.110;2023-02-04T03:37:56;95905.38;;;7.43;49.36
39363;BME280;25088;43.238;23.110;2023-02-04T03:40:21;95898.66;;;7.29;49.63
39363;BME280;25088;43.238;23.110;2023-02-04T03:42:47;95910.59;;;7.28;49.90
39363;BME280;25088;43.238;23.110;2023-02-04T03:45:13;95926.88;;;7.28;49.45
39363;BME280;25088;43.238;23.110;2023-02-04T03:47:38;95902.13;;;7.24;49.38
39363;BME280;25088;43.238;23.110;2023-02-04T03:50:04;95908.34;;;7.24;49.93
39363;BME280;25088;43.238;23.110;2023-02-04T03:52:29;95913.09;;;7.12;49.32
39363;BME280;25088;43.238;23.110;2023-02-04T03:54:55;95907.91;;;6.94;50.33
39363;BME280;25088;43.238;23.110;2023-02-04T03:57:20;95905.47;;;6.92;50.73
39363;BME280;25088;43.238;23.110;2023-02-04T03:59:46;95887.75;;;6.90;50.26
39363;BME280;25088;43.238;23.110;2023-02-04T04:02:11;95888.84;;;6.72;50.54
39363;BME280;25088;43.238;23.110;2023-02-04T04:04:37;95875.59;;;6.76;51.09
39363;BME280;25088;43.238;23.110;2023-02-04T04:07:02;95878.00;;;6.72;50.70
39363;BME280;25088;43.238;23.110;2023-02-04T04:09:28;95886.16;;;6.72;51.18
39363;BME280;25088;43.238;23.110;2023-02-04T04:11:53;95884.19;;;6.67;50.39
39363;BME280;25088;43.238;23.110;2023-02-04T04:14:19;95880.53;;;6.79;50.01
39363;BME280;25088;43.238;23.110;2023-02-04T04:16:44;95892.94;;;6.74;49.98
39363;BME280;25088;43.238;23.110;2023-02-04T04:19:10;95895.84;;;6.68;50.09
39363;BME280;25088;43.238;23.110;2023-02-04T04:21:35;95911.22;;;6.62;50.48
39363;BME280;25088;43.238;23.110;2023-02-04T04:24:01;95905.63;;;6.52;50.25
39363;BME280;25088;43.238;23.110;2023-02-04T04:26:27;95928.22;;;6.58;50.68
39363;BME280;25088;43.238;23.110;2023-02-04T04:28:52;95922.28;;;6.44;50.99
39363;BME280;25088;43.238;23.110;2023-02-04T04:31:18;95925.63;;;6.34;51.33
39363;BME280;25088;43.238;23.110;2023-02-04T04:33:43;95927.81;;;6.20;51.86
39363;BME280;25088;43.238;23.110;2023-02-04T04:36:09;95927.25;;;6.18;51.50
39363;BME280;25088;43.238;23.110;2023-02-04T04:38:34;95947.75;;;6.14;51.36
39363;BME280;25088;43.238;23.110;2023-02-04T04:40:59;95948.22;;;6.11;51.15
39363;BME280;25088;43.238;23.110;2023-02-04T04:43:25;95950.38;;;6.09;51.14
39363;BME280;25088;43.238;23.110;2023-02-04T04:45:51;95962.63;;;6.12;50.84
39363;BME280;25088;43.238;23.110;2023-02-04T04:48:16;95956.97;;;6.13;50.77
39363;BME280;25088;43.238;23.110;2023-02-04T04:50:42;95964.66;;;6.05;50.53
39363;BME280;25088;43.238;23.110;2023-02-04T04:53:07;95949.81;;;6.07;50.18
39363;BME280;25088;43.238;23.110;2023-02-04T04:55:38;95955.53;;;6.11;50.95
39363;BME280;25088;43.238;23.110;2023-02-04T04:58:06;95958.41;;;6.04;50.27
39363;BME280;25088;43.238;23.110;2023-02-04T05:00:32;95938.66;;;5.92;50.29
39363;BME280;25088;43.238;23.110;2023-02-04T05:02:57;95966.78;;;6.03;49.94
39363;BME280;25088;43.238;23.110;2023-02-04T05:05:23;95966.44;;;5.99;49.89
39363;BME280;25088;43.238;23.110;2023-02-04T05:07:48;95951.72;;;5.95;49.75
39363;BME280;25088;43.238;23.110;2023-02-04T05:10:14;95925.72;;;5.82;49.77
39363;BME280;25088;43.238;23.110;2023-02-04T05:12:40;95940.41;;;5.86;49.98
39363;BME280;25088;43.238;23.110;2023-02-04T05:15:06;95923.22;;;5.81;49.03
39363;BME280;25088;43.238;23.110;2023-02-04T05:17:32;95928.84;;;5.91;49.42
39363;BME280;25088;43.238;23.110;2023-02-04T05:19:57;95934.38;;;5.96;49.18
39363;BME280;25088;43.238;23.110;2023-02-04T05:22:23;95945.09;;;5.91;49.43
39363;BME280;25088;43.238;23.110;2023-02-04T05:24:48;95950.41;;;5.86;49.85
39363;BME280;25088;43.238;23.110;2023-02-04T05:27:14;95952.31;;;5.85;48.91
39363;BME280;25088;43.238;23.110;2023-02-04T05:29:39;95963.97;;;5.86;48.94
39363;BME280;25088;43.238;23.110;2023-02-04T05:32:04;95961.34;;;5.91;49.13
39363;BME280;25088;43.238;23.110;2023-02-04T05:34:30;95962.19;;;5.91;50.02
39363;BME280;25088;43.238;23.110;2023-02-04T05:36:55;95958.44;;;5.81;50.33
39363;BME280;25088;43.238;23.110;2023-02-04T05:39:21;95944.47;;;5.60;51.41
39363;BME280;25088;43.238;23.110;2023-02-04T05:41:46;95943.91;;;5.58;50.61
39363;BME280;25088;43.238;23.110;2023-02-04T05:44:12;95943.91;;;5.58;50.53
39363;BME280;25088;43.238;23.110;2023-02-04T05:46:37;95949.31;;;5.58;51.01
39363;BME280;25088;43.238;23.110;2023-02-04T05:49:03;95905.34;;;5.28;51.11
39363;BME280;25088;43.238;23.110;2023-02-04T05:51:30;95956.97;;;5.50;51.26
39363;BME280;25088;43.238;23.110;2023-02-04T05:53:55;95957.56;;;5.40;51.11
39363;BME280;25088;43.238;23.110;2023-02-04T05:56:21;95949.81;;;5.32;52.14
39363;BME280;25088;43.238;23.110;2023-02-04T05:58:46;95953.47;;;5.37;51.49
39363;BME280;25088;43.238;23.110;2023-02-04T06:01:12;95963.44;;;5.37;51.26
39363;BME280;25088;43.238;23.110;2023-02-04T06:03:37;95963.00;;;5.40;50.13
39363;BME280;25088;43.238;23.110;2023-02-04T06:06:03;95966.03;;;5.55;50.72
39363;BME280;25088;43.238;23.110;2023-02-04T06:08:28;95972.75;;;5.53;51.19
39363;BME280;25088;43.238;23.110;2023-02-04T06:10:54;95977.56;;;5.51;51.36
39363;BME280;25088;43.238;23.110;2023-02-04T06:13:19;95978.63;;;5.50;51.24
39363;BME280;25088;43.238;23.110;2023-02-04T06:15:45;95969.09;;;5.35;51.08
39363;BME280;25088;43.238;23.110;2023-02-04T06:18:10;95984.78;;;5.33;51.97
39363;BME280;25088;43.238;23.110;2023-02-04T06:20:36;95954.53;;;5.25;52.37
39363;BME280;25088;43.238;23.110;2023-02-04T06:23:01;95973.22;;;5.26;51.94
39363;BME280;25088;43.238;23.110;2023-02-04T06:25:27;95979.69;;;5.37;51.76
39363;BME280;25088;43.238;23.110;2023-02-04T06:27:52;95987.81;;;5.37;51.63
39363;BME280;25088;43.238;23.110;2023-02-04T06:30:18;95989.81;;;5.53;53.75
39363;BME280;25088;43.238;23.110;2023-02-04T06:32:43;95980.59;;;5.66;53.32
39363;BME280;25088;43.238;23.110;2023-02-04T06:35:09;95981.28;;;5.85;53.22
39363;BME280;25088;43.238;23.110;2023-02-04T06:37:37;95966.34;;;5.82;51.68
39363;BME280;25088;43.238;23.110;2023-02-04T06:40:03;95989.75;;;6.00;51.24
39363;BME280;25088;43.238;23.110;2023-02-04T06:42:29;95965.03;;;6.25;50.30
39363;BME280;25088;43.238;23.110;2023-02-04T06:44:54;95973.34;;;6.81;50.30
39363;BME280;25088;43.238;23.110;2023-02-04T06:47:21;95956.00;;;6.98;50.01
39363;BME280;25088;43.238;23.110;2023-02-04T06:49:47;95936.88;;;6.88;48.83
39363;BME280;25088;43.238;23.110;2023-02-04T06:52:12;95956.00;;;6.98;50.71
39363;BME280;25088;43.238;23.110;2023-02-04T06:54:38;95945.56;;;7.63;50.44
39363;BME280;25088;43.238;23.110;2023-02-04T06:57:03;95958.50;;;8.43;48.77
39363;BME280;25088;43.238;23.110;2023-02-04T06:59:36;95939.31;;;9.19;46.60
39363;BME280;25088;43.238;23.110;2023-02-04T07:02:02;95946.53;;;9.88;44.71
39363;BME280;25088;43.238;23.110;2023-02-04T07:04:28;95936.91;;;10.28;43.09
39363;BME280;25088;43.238;23.110;2023-02-04T07:06:53;95932.94;;;10.92;41.51
39363;BME280;25088;43.238;23.110;2023-02-04T07:09:19;95932.38;;;11.30;40.81
39363;BME280;25088;43.238;23.110;2023-02-04T07:11:44;95931.22;;;11.72;39.70
39363;BME280;25088;43.238;23.110;2023-02-04T07:14:10;95937.66;;;12.12;39.07
39363;BME280;25088;43.238;23.110;2023-02-04T07:16:36;95938.63;;;12.41;38.44
39363;BME280;25088;43.238;23.110;2023-02-04T07:19:02;95923.44;;;12.64;38.63
39363;BME280;25088;43.238;23.110;2023-02-04T07:21:28;95922.50;;;12.84;39.37
39363;BME280;25088;43.238;23.110;2023-02-04T07:23:53;95923.19;;;13.00;38.45
39363;BME280;25088;43.238;23.110;2023-02-04T07:26:19;95935.91;;;13.25;38.43
39363;BME280;25088;43.238;23.110;2023-02-04T07:28:44;95929.38;;;13.50;37.57
39363;BME280;25088;43.238;23.110;2023-02-04T07:31:10;95923.69;;;13.94;36.71
39363;BME280;25088;43.238;23.110;2023-02-04T07:33:35;95922.16;;;14.31;36.41
39363;BME280;25088;43.238;23.110;2023-02-04T07:36:01;95918.38;;;14.46;35.51
39363;BME280;25088;43.238;23.110;2023-02-04T07:38:26;95921.63;;;14.91;34.64
39363;BME280;25088;43.238;23.110;2023-02-04T07:40:52;95914.72;;;14.93;34.95
39363;BME280;25088;43.238;23.110;2023-02-04T07:43:18;95905.19;;;15.05;34.15
39363;BME280;25088;43.238;23.110;2023-02-04T07:45:44;95906.25;;;14.71;34.66
39363;BME280;25088;43.238;23.110;2023-02-04T07:48:09;95896.88;;;14.10;34.87
39363;BME280;25088;43.238;23.110;2023-02-04T07:50:35;95921.25;;;13.40;35.75
39363;BME280;25088;43.238;23.110;2023-02-04T07:53:01;95923.28;;;12.90;37.16
39363;BME280;25088;43.238;23.110;2023-02-04T07:55:27;95939.44;;;12.42;39.01
39363;BME280;25088;43.238;23.110;2023-02-04T07:57:53;95939.63;;;12.01;38.75
39363;BME280;25088;43.238;23.110;2023-02-04T08:00:20;95942.75;;;11.59;39.79
39363;BME280;25088;43.238;23.110;2023-02-04T08:02:45;95941.41;;;11.26;39.53
39363;BME280;25088;43.238;23.110;2023-02-04T08:05:11;95926.38;;;10.77;39.90
39363;BME280;25088;43.238;23.110;2023-02-04T08:07:37;95952.00;;;10.51;39.83
39363;BME280;25088;43.238;23.110;2023-02-04T08:10:04;95943.72;;;10.25;41.14
39363;BME280;25088;43.238;23.110;2023-02-04T08:12:30;95953.38;;;9.91;40.78
39363;BME280;25088;43.238;23.110;2023-02-04T08:14:55;95955.88;;;9.50;41.47
39363;BME280;25088;43.238;23.110;2023-02-04T08:17:21;95966.53;;;9.19;42.22
39363;BME280;25088;43.238;23.110;2023-02-04T08:19:46;95960.34;;;9.29;42.85
39363;BME280;25088;43.238;23.110;2023-02-04T08:22:12;95954.50;;;8.78;42.50
39363;BME280;25088;43.238;23.110;2023-02-04T08:24:37;95978.38;;;8.44;42.95
39363;BME280;25088;43.238;23.110;2023-02-04T08:27:03;95968.78;;;8.36;44.15
39363;BME280;25088;43.238;23.110;2023-02-04T08:29:29;95972.78;;;8.56;44.02
39363;BME280;25088;43.238;23.110;2023-02-04T08:31:54;95961.25;;;8.70;45.26
39363;BME280;25088;43.238;23.110;2023-02-04T08:34:20;95970.38;;;8.86;44.79
39363;BME280;25088;43.238;23.110;2023-02-04T08:36:46;95963.53;;;8.84;43.38
39363;BME280;25088;43.238;23.110;2023-02-04T08:39:12;95975.03;;;8.91;44.96
39363;BME280;25088;43.238;23.110;2023-02-04T08:41:38;95974.78;;;8.92;45.97
39363;BME280;25088;43.238;23.110;2023-02-04T08:44:03;95975.03;;;8.91;45.52
39363;BME280;25088;43.238;23.110;2023-02-04T08:46:29;95968.38;;;8.76;45.58
39363;BME280;25088;43.238;23.110;2023-02-04T08:48:54;95981.19;;;8.54;45.64
39363;BME280;25088;43.238;23.110;2023-02-04T08:51:20;95984.13;;;8.47;45.62
39363;BME280;25088;43.238;23.110;2023-02-04T08:53:45;95992.84;;;8.27;45.83
39363;BME280;25088;43.238;23.110;2023-02-04T08:56:11;95976.53;;;8.27;47.34
39363;BME280;25088;43.238;23.110;2023-02-04T08:58:41;95986.38;;;8.34;46.33
39363;BME280;25088;43.238;23.110;2023-02-04T09:01:07;95988.09;;;8.40;47.63
39363;BME280;25088;43.238;23.110;2023-02-04T09:03:32;95978.56;;;8.37;46.93
39363;BME280;25088;43.238;23.110;2023-02-04T09:05:58;95999.38;;;8.48;46.87
39363;BME280;25088;43.238;23.110;2023-02-04T09:08:23;95995.13;;;8.58;47.00
39363;BME280;25088;43.238;23.110;2023-02-04T09:10:49;96002.78;;;8.61;46.28
39363;BME280;25088;43.238;23.110;2023-02-04T09:13:14;95997.84;;;8.58;46.32
39363;BME280;25088;43.238;23.110;2023-02-04T09:15:40;96001.97;;;8.16;48.47
39363;BME280;25088;43.238;23.110;2023-02-04T09:18:05;96007.22;;;7.62;50.87
39363;BME280;25088;43.238;23.110;2023-02-04T09:20:40;95993.41;;;7.47;51.34
39363;BME280;25088;43.238;23.110;2023-02-04T09:23:05;96008.66;;;7.31;52.78
39363;BME280;25088;43.238;23.110;2023-02-04T09:25:34;95996.88;;;7.09;54.18
39363;BME280;25088;43.238;23.110;2023-02-04T09:27:59;96009.72;;;7.30;55.34
39363;BME280;25088;43.238;23.110;2023-02-04T09:30:24;96010.56;;;6.97;55.77
39363;BME280;25088;43.238;23.110;2023-02-04T09:32:50;96011.03;;;6.94;57.07
39363;BME280;25088;43.238;23.110;2023-02-04T09:35:16;96012.28;;;7.03;57.42
39363;BME280;25088;43.238;23.110;2023-02-04T09:37:41;96014.41;;;7.18;56.68
39363;BME280;25088;43.238;23.110;2023-02-04T09:40:08;96007.00;;;7.47;57.03
39363;BME280;25088;43.238;23.110;2023-02-04T09:42:34;96002.88;;;7.61;55.72
39363;BME280;25088;43.238;23.110;2023-02-04T09:45:00;96010.09;;;7.56;56.01
39363;BME280;25088;43.238;23.110;2023-02-04T09:47:27;96007.38;;;7.72;55.30
39363;BME280;25088;43.238;23.110;2023-02-04T09:49:53;95997.00;;;7.69;54.89
39363;BME280;25088;43.238;23.110;2023-02-04T09:52:19;95998.28;;;7.84;54.68
39363;BME280;25088;43.238;23.110;2023-02-04T09:54:45;96012.53;;;7.91;54.48
39363;BME280;25088;43.238;23.110;2023-02-04T09:57:17;96012.94;;;7.83;54.52
39363;BME280;25088;43.238;23.110;2023-02-04T09:59:45;96012.50;;;7.35;55.70
39363;BME280;25088;43.238;23.110;2023-02-04T10:02:24;96015.00;;;7.37;56.43
39363;BME280;25088;43.238;23.110;2023-02-04T10:04:52;96014.00;;;7.26;58.32
39363;BME280;25088;43.238;23.110;2023-02-04T10:07:21;96017.28;;;6.94;59.86
39363;BME280;25088;43.238;23.110;2023-02-04T10:09:50;96013.47;;;6.79;60.88
39363;BME280;25088;43.238;23.110;2023-02-04T10:12:16;96019.50;;;6.52;63.03
39363;BME280;25088;43.238;23.110;2023-02-04T10:14:42;96013.66;;;6.43;64.47
39363;BME280;25088;43.238;23.110;2023-02-04T10:17:09;96012.00;;;6.42;65.56
39363;BME280;25088;43.238;23.110;2023-02-04T10:19:35;96010.84;;;6.38;65.73
39363;BME280;25088;43.238;23.110;2023-02-04T10:22:02;96012.91;;;6.19;66.83
39363;BME280;25088;43.238;23.110;2023-02-04T10:24:52;96005.53;;;6.03;67.70
39363;BME280;25088;43.238;23.110;2023-02-04T10:27:18;95996.38;;;5.92;68.72
39363;BME280;25088;43.238;23.110;2023-02-04T10:29:55;96006.41;;;5.92;70.31
39363;BME280;25088;43.238;23.110;2023-02-04T10:32:34;95969.16;;;5.76;69.94
39363;BME280;25088;43.238;23.110;2023-02-04T10:35:01;96006.72;;;5.95;69.69
39363;BME280;25088;43.238;23.110;2023-02-04T10:37:28;95994.09;;;5.89;68.10
39363;BME280;25088;43.238;23.110;2023-02-04T10:39:54;96004.94;;;6.13;66.90
39363;BME280;25088;43.238;23.110;2023-02-04T10:42:27;96008.91;;;6.22;67.05
39363;BME280;25088;43.238;23.110;2023-02-04T10:44:53;95994.72;;;6.32;66.54
39363;BME280;25088;43.238;23.110;2023-02-04T10:47:21;95978.25;;;5.93;67.93
39363;BME280;25088;43.238;23.110;2023-02-04T10:50:18;95991.50;;;6.06;68.82
39363;BME280;25088;43.238;23.110;2023-02-04T10:52:58;96001.75;;;6.04;68.05
39363;BME280;25088;43.238;23.110;2023-02-04T10:55:44;95998.09;;;6.10;69.16
39363;BME280;25088;43.238;23.110;2023-02-04T10:58:13;95994.19;;;6.06;69.44
39363;BME280;25088;43.238;23.110;2023-02-04T11:00:41;95992.13;;;6.25;68.22
39363;BME280;25088;43.238;23.110;2023-02-04T11:03:25;95974.50;;;6.22;68.36
39363;BME280;25088;43.238;23.110;2023-02-04T11:05:52;95987.31;;;6.27;68.05
39363;BME280;25088;43.238;23.110;2023-02-04T11:08:23;95983.38;;;6.06;69.32
39363;BME280;25088;43.238;23.110;2023-02-04T11:11:03;95969.09;;;6.11;69.46
39363;BME280;25088;43.238;23.110;2023-02-04T11:19:10;95974.47;;;5.94;73.18
39363;BME280;25088;43.238;23.110;2023-02-04T11:26:42;95971.28;;;5.97;78.33
39363;BME280;25088;43.238;23.110;2023-02-04T11:36:55;95971.66;;;5.65;81.04
39363;BME280;25088;43.238;23.110;2023-02-04T11:39:27;95969.78;;;5.66;80.72
39363;BME280;25088;43.238;23.110;2023-02-04T11:41:53;95968.00;;;5.71;80.48
39363;BME280;25088;43.238;23.110;2023-02-04T11:44:19;95953.63;;;5.83;81.55
39363;BME280;25088;43.238;23.110;2023-02-04T11:46:53;95953.22;;;5.91;81.13
39363;BME280;25088;43.238;23.110;2023-02-04T11:49:20;95948.75;;;5.96;76.62
39363;BME280;25088;43.238;23.110;2023-02-04T11:51:46;95953.56;;;6.06;76.54
39363;BME280;25088;43.238;23.110;2023-02-04T11:54:14;95952.81;;;6.22;76.79
39363;BME280;25088;43.238;23.110;2023-02-04T11:56:42;95945.09;;;6.31;77.92
39363;BME280;25088;43.238;23.110;2023-02-04T11:59:08;95945.03;;;6.43;76.10
39363;BME280;25088;43.238;23.110;2023-02-04T12:01:35;95943.66;;;6.57;75.37
39363;BME280;25088;43.238;23.110;2023-02-04T12:04:03;95940.53;;;6.48;72.74
39363;BME280;25088;43.238;23.110;2023-02-04T12:06:32;95941.63;;;6.64;72.32
39363;BME280;25088;43.238;23.110;2023-02-04T12:09:22;95952.56;;;6.69;74.03
39363;BME280;25088;43.238;23.110;2023-02-04T12:14:18;95956.53;;;6.50;75.03
39363;BME280;25088;43.238;23.110;2023-02-04T12:16:45;95962.66;;;6.29;77.67
39363;BME280;25088;43.238;23.110;2023-02-04T12:19:12;95966.78;;;6.03;75.60
39363;BME280;25088;43.238;23.110;2023-02-04T12:21:38;95970.09;;;5.81;77.68
39363;BME280;25088;43.238;23.110;2023-02-04T12:24:04;95971.56;;;5.72;78.09
39363;BME280;25088;43.238;23.110;2023-02-04T12:26:30;95966.34;;;5.70;77.42
39363;BME280;25088;43.238;23.110;2023-02-04T12:28:55;95960.56;;;5.79;80.34
39363;BME280;25088;43.238;23.110;2023-02-04T12:31:21;95965.63;;;5.99;78.84
39363;BME280;25088;43.238;23.110;2023-02-04T12:33:47;95969.59;;;6.08;75.75
39363;BME280;25088;43.238;23.110;2023-02-04T12:36:13;95966.19;;;5.89;75.79
39363;BME280;25088;43.238;23.110;2023-02-04T12:38:38;95977.41;;;5.92;75.41
39363;BME280;25088;43.238;23.110;2023-02-04T12:41:04;95978.78;;;6.07;76.18
39363;BME280;25088;43.238;23.110;2023-02-04T12:43:30;95971.63;;;5.89;77.51
39363;BME280;25088;43.238;23.110;2023-02-04T12:45:55;95978.09;;;5.88;79.46
39363;BME280;25088;43.238;23.110;2023-02-04T12:48:21;95974.47;;;5.70;80.59
39363;BME280;25088;43.238;23.110;2023-02-04T12:50:46;95970.22;;;5.75;81.54
39363;BME280;25088;43.238;23.110;2023-02-04T12:53:12;95978.97;;;5.65;83.29
39363;BME280;25088;43.238;23.110;2023-02-04T12:55:38;95975.78;;;5.68;78.95
39363;BME280;25088;43.238;23.110;2023-02-04T12:58:03;95980.53;;;5.26;81.23
39363;BME280;25088;43.238;23.110;2023-02-04T13:00:29;95989.34;;;5.21;84.71
39363;BME280;25088;43.238;23.110;2023-02-04T13:02:55;95987.38;;;5.28;85.04
39363;BME280;25088;43.238;23.110;2023-02-04T13:05:23;95989.25;;;5.28;84.67
39363;BME280;25088;43.238;23.110;2023-02-04T13:07:49;95967.47;;;5.34;84.54
39363;BME280;25088;43.238;23.110;2023-02-04T13:10:15;95976.19;;;5.48;84.11
39363;BME280;25088;43.238;23.110;2023-02-04T13:12:42;95950.75;;;5.49;78.48
39363;BME280;25088;43.238;23.110;2023-02-04T13:15:09;95976.31;;;5.82;79.23
39363;BME280;25088;43.238;23.110;2023-02-04T13:17:34;95954.66;;;5.82;78.08